sensor_id;sensor_type;location;lat;lon;timestamp;temperature;humidity
12655;DHT22;6392;44.644;11.448;2023-05-07T00:02:19;20.50;99.90
12655;DHT22;6392;44.644;11.448;2023-05-07T00:04:46;20.40;99.90
12655;DHT22;6392;44.644;11.448;2023-05-07T00:07:13;20.40;99.90
12655;DHT22;6392;44.644;11.448;2023-05-07T00:09:40;20.30;99.90
12655;DHT22;6392;44.644;11.448;2023-05-07T00:12:06;20.10;99.90
12655;DHT22;6392;44.644;11.448;2023-05-07T00:14:35;20.30;99.90
12655;DHT22;6392;44.644;11.448;2023-05-07T00:17:01;20.20;99.90
12655;DHT22;6392;44.644;11.448;2023-05-07T00:19:28;20.10;99.90
12655;DHT22;6392;44.644;11.448;2023-05-07T00:21:55;20.10;99.90
12655;DHT22;6392;44.644;11.448;2023-05-07T00:24:22;20.10;99.90
12655;DHT22;6392;44.644;11.448;2023-05-07T00:26:49;20.20;99.90
12655;DHT22;6392;44.644;11.448;2023-05-07T00:29:15;20.10;99.90
12655;DHT22;6392;44.644;11.448;2023-05-07T00:31:44;20.10;99.90
12655;DHT22;6392;44.644;11.448;2023-05-07T00:34:10;20.10;99.90
12655;DHT22;6392;44.644;11.448;2023-05-07T00:36:37;20.00;99.90
12655;DHT22;6392;44.644;11.448;2023-05-07T00:39:04;19.90;99.90
12655;DHT22;6392;44.644;11.448;2023-05-07T00:41:31;19.90;99.90
12655;DHT22;6392;44.644;11.448;2023-05-07T00:43:57;19.90;99.90
12655;DHT22;6392;44.644;11.448;2023-05-07T00:46:24;19.90;99.90
12655;DHT22;6392;44.644;11.448;2023-05-07T00:48:52;19.90;99.90
12655;DHT22;6392;44.644;11.448;2023-05-07T00:51:19;19.90;99.90
12655;DHT22;6392;44.644;11.448;2023-05-07T00:53:46;19.90;99.90
12655;DHT22;6392;44.644;11.448;2023-05-07T00:56:13;19.80;99.90
12655;DHT22;6392;44.644;11.448;2023-05-07T00:58:40;19.80;99.90
12655;DHT22;6392;44.644;11.448;2023-05-07T01:01:08;19.80;99.90
12655;DHT22;6392;44.644;11.448;2023-05-07T01:03:34;19.80;99.90
12655;DHT22;6392;44.644;11.448;2023-05-07T01:06:03;19.80;99.90
12655;DHT22;6392;44.644;11.448;2023-05-07T01:08:30;19.80;99.90
12655;DHT22;6392;44.644;11.448;2023-05-07T01:10:57;19.70;99.90
12655;DHT22;6392;44.644;11.448;2023-05-07T01:13:24;19.70;99.90
12655;DHT22;6392;44.644;11.448;2023-05-07T01:15:51;19.70;99.90
12655;DHT22;6392;44.644;11.448;2023-05-07T01:18:18;19.70;99.90
12655;DHT22;6392;44.644;11.448;2023-05-07T01:20:45;19.70;99.90
12655;DHT22;6392;44.644;11.448;2023-05-07T01:23:14;19.70;99.90
12655;DHT22;6392;44.644;11.448;2023-05-07T01:25:41;19.70;99.90
12655;DHT22;6392;44.644;11.448;2023-05-07T01:28:08;19.60;99.90
12655;DHT22;6392;44.644;11.448;2023-05-07T01:30:35;19.60;99.90
12655;DHT22;6392;44.644;11.448;2023-05-07T01:33:03;19.60;99.90
12655;DHT22;6392;44.644;11.448;2023-05-07T01:35:34;19.60;99.90
12655;DHT22;6392;44.644;11.448;2023-05-07T01:38:02;19.50;99.90
12655;DHT22;6392;44.644;11.448;2023-05-07T01:40:32;19.50;99.90
12655;DHT22;6392;44.644;11.448;2023-05-07T01:43:00;19.40;99.90
12655;DHT22;6392;44.644;11.448;2023-05-07T01:45:27;19.40;99.90
12655;DHT22;6392;44.644;11.448;2023-05-07T01:47:54;19.30;99.90
12655;DHT22;6392;44.644;11.448;2023-05-07T01:50:21;19.20;99.90
12655;DHT22;6392;44.644;11.448;2023-05-07T01:52:49;19.30;99.90
12655;DHT22;6392;44.644;11.448;2023-05-07T01:55:16;19.30;99.90
12655;DHT22;6392;44.644;11.448;2023-05-07T01:57:44;19.20;99.90
12655;DHT22;6392;44.644;11.448;2023-05-07T02:00:11;19.20;99.90
12655;DHT22;6392;44.644;11.448;2023-05-07T02:02:38;19.10;99.90
12655;DHT22;6392;44.644;11.448;2023-05-07T02:05:05;19.10;99.90
12655;DHT22;6392;44.644;11.448;2023-05-07T02:07:32;19.10;99.90
12655;DHT22;6392;44.644;11.448;2023-05-07T02:09:59;19.10;99.90
12655;DHT22;6392;44.644;11.448;2023-05-07T02:12:26;19.10;99.90
12655;DHT22;6392;44.644;11.448;2023-05-07T02:14:54;19.10;99.90
12655;DHT22;6392;44.644;11.448;2023-05-07T02:17:20;19.10;99.90
12655;DHT22;6392;44.644;11.448;2023-05-07T02:19:47;19.10;99.90
12655;DHT22;6392;44.644;11.448;2023-05-07T02:22:14;19.20;99.90
12655;DHT22;6392;44.644;11.448;2023-05-07T02:24:41;19.20;99.90
12655;DHT22;6392;44.644;11.448;2023-05-07T02:27:07;19.20;99.90
12655;DHT22;6392;44.644;11.448;2023-05-07T02:29:34;19.20;99.90
12655;DHT22;6392;44.644;11.448;2023-05-07T02:32:02;19.10;99.90
12655;DHT22;6392;44.644;11.448;2023-05-07T02:34:29;19.10;99.90
12655;DHT22;6392;44.644;11.448;2023-05-07T02:36:56;19.10;99.90
12655;DHT22;6392;44.644;11.448;2023-05-07T02:39:23;19.10;99.90
12655;DHT22;6392;44.644;11.448;2023-05-07T02:41:50;19.00;99.90
12655;DHT22;6392;44.644;11.448;2023-05-07T02:44:16;19.00;99.90
12655;DHT22;6392;44.644;11.448;2023-05-07T02:46:43;18.90;99.90
12655;DHT22;6392;44.644;11.448;2023-05-07T02:49:11;18.90;99.90
12655;DHT22;6392;44.644;11.448;2023-05-07T02:51:38;18.90;99.90
12655;DHT22;6392;44.644;11.448;2023-05-07T02:54:05;18.90;99.90
12655;DHT22;6392;44.644;11.448;2023-05-07T02:56:32;18.80;99.90
12655;DHT22;6392;44.644;11.448;2023-05-07T02:58:58;18.80;99.90
12655;DHT22;6392;44.644;11.448;2023-05-07T03:01:25;18.70;99.90
12655;DHT22;6392;44.644;11.448;2023-05-07T03:03:52;18.70;99.90
12655;DHT22;6392;44.644;11.448;2023-05-07T03:06:20;18.60;99.90
12655;DHT22;6392;44.644;11.448;2023-05-07T03:08:47;18.60;99.90
12655;DHT22;6392;44.644;11.448;2023-05-07T03:11:13;18.60;99.90
12655;DHT22;6392;44.644;11.448;2023-05-07T03:13:40;18.60;99.90
12655;DHT22;6392;44.644;11.448;2023-05-07T03:16:07;18.60;99.90
12655;DHT22;6392;44.644;11.448;2023-05-07T03:18:34;18.60;99.90
12655;DHT22;6392;44.644;11.448;2023-05-07T03:21:01;18.60;99.90
12655;DHT22;6392;44.644;11.448;2023-05-07T03:23:29;18.50;99.90
12655;DHT22;6392;44.644;11.448;2023-05-07T03:25:55;18.60;99.90
12655;DHT22;6392;44.644;11.448;2023-05-07T03:28:22;18.60;99.90
12655;DHT22;6392;44.644;11.448;2023-05-07T03:30:49;18.50;99.90
12655;DHT22;6392;44.644;11.448;2023-05-07T03:33:16;18.50;99.90
12655;DHT22;6392;44.644;11.448;2023-05-07T03:35:42;18.50;99.90
12655;DHT22;6392;44.644;11.448;2023-05-07T03:38:09;18.50;99.90
12655;DHT22;6392;44.644;11.448;2023-05-07T03:40:37;18.50;99.90
12655;DHT22;6392;44.644;11.448;2023-05-07T03:43:04;18.50;99.90
12655;DHT22;6392;44.644;11.448;2023-05-07T03:45:31;18.40;99.90
12655;DHT22;6392;44.644;11.448;2023-05-07T03:47:58;18.40;99.90
12655;DHT22;6392;44.644;11.448;2023-05-07T03:50:24;18.40;99.90
12655;DHT22;6392;44.644;11.448;2023-05-07T03:52:51;18.30;99.90
12655;DHT22;6392;44.644;11.448;2023-05-07T03:55:18;18.30;99.90
12655;DHT22;6392;44.644;11.448;2023-05-07T03:57:46;18.30;99.90
12655;DHT22;6392;44.644;11.448;2023-05-07T04:00:13;18.20;99.90
12655;DHT22;6392;44.644;11.448;2023-05-07T04:02:40;18.20;99.90
12655;DHT22;6392;44.644;11.448;2023-05-07T04:05:07;18.20;99.90
12655;DHT22;6392;44.644;11.448;2023-05-07T04:07:34;18.20;99.90
12655;DHT22;6392;44.644;11.448;2023-05-07T04:10:01;18.20;99.90
12655;DHT22;6392;44.644;11.448;2023-05-07T04:12:28;18.20;99.90
12655;DHT22;6392;44.644;11.448;2023-05-07T04:14:56;18.20;99.90
12655;DHT22;6392;44.644;11.448;2023-05-07T04:17:23;18.20;99.90
12655;DHT22;6392;44.644;11.448;2023-05-07T04:19:49;18.20;99.90
12655;DHT22;6392;44.644;11.448;2023-05-07T04:22:16;18.20;99.90
12655;DHT22;6392;44.644;11.448;2023-05-07T04:24:43;18.20;99.90
12655;DHT22;6392;44.644;11.448;2023-05-07T04:27:10;18.20;99.90
12655;DHT22;6392;44.644;11.448;2023-05-07T04:29:37;18.20;99.90
12655;DHT22;6392;44.644;11.448;2023-05-07T04:32:09;18.20;99.90
12655;DHT22;6392;44.644;11.448;2023-05-07T04:34:35;18.20;99.90
12655;DHT22;6392;44.644;11.448;2023-05-07T04:37:02;18.20;99.90
12655;DHT22;6392;44.644;11.448;2023-05-07T04:39:29;18.20;99.90
12655;DHT22;6392;44.644;11.448;2023-05-07T04:41:56;18.20;99.90
12655;DHT22;6392;44.644;11.448;2023-05-07T04:44:22;18.20;99.90
12655;DHT22;6392;44.644;11.448;2023-05-07T04:46:50;18.20;99.90
12655;DHT22;6392;44.644;11.448;2023-05-07T04:49:18;18.20;99.90
12655;DHT22;6392;44.644;11.448;2023-05-07T04:51:45;18.20;99.90
12655;DHT22;6392;44.644;11.448;2023-05-07T04:54:11;18.20;99.90
12655;DHT22;6392;44.644;11.448;2023-05-07T04:56:38;18.20;99.90
12655;DHT22;6392;44.644;11.448;2023-05-07T04:59:05;18.20;99.90
12655;DHT22;6392;44.644;11.448;2023-05-07T05:01:32;18.20;99.90
12655;DHT22;6392;44.644;11.448;2023-05-07T05:03:58;18.20;99.90
12655;DHT22;6392;44.644;11.448;2023-05-07T05:06:28;18.30;99.90
12655;DHT22;6392;44.644;11.448;2023-05-07T05:08:55;18.30;99.90
12655;DHT22;6392;44.644;11.448;2023-05-07T05:11:22;18.30;99.90
12655;DHT22;6392;44.644;11.448;2023-05-07T05:13:49;18.30;99.90
12655;DHT22;6392;44.644;11.448;2023-05-07T05:16:16;18.30;99.90
12655;DHT22;6392;44.644;11.448;2023-05-07T05:18:43;18.30;99.90
12655;DHT22;6392;44.644;11.448;2023-05-07T05:21:09;18.30;99.90
12655;DHT22;6392;44.644;11.448;2023-05-07T05:23:37;18.30;99.90
12655;DHT22;6392;44.644;11.448;2023-05-07T05:26:04;18.30;99.90
12655;DHT22;6392;44.644;11.448;2023-05-07T05:28:31;18.30;99.90
12655;DHT22;6392;44.644;11.448;2023-05-07T05:30:58;18.30;99.90
12655;DHT22;6392;44.644;11.448;2023-05-07T05:33:24;18.30;99.90
12655;DHT22;6392;44.644;11.448;2023-05-07T05:35:51;18.30;99.90
12655;DHT22;6392;44.644;11.448;2023-05-07T05:38:18;18.30;99.90
12655;DHT22;6392;44.644;11.448;2023-05-07T05:40:47;18.30;99.90
12655;DHT22;6392;44.644;11.448;2023-05-07T05:43:14;18.30;99.90
12655;DHT22;6392;44.644;11.448;2023-05-07T05:45:41;18.30;99.90
12655;DHT22;6392;44.644;11.448;2023-05-07T05:48:08;18.20;99.90
12655;DHT22;6392;44.644;11.448;2023-05-07T05:50:34;18.20;99.90
12655;DHT22;6392;44.644;11.448;2023-05-07T05:53:02;18.20;99.90
12655;DHT22;6392;44.644;11.448;2023-05-07T05:55:28;18.20;99.90
12655;DHT22;6392;44.644;11.448;2023-05-07T05:57:59;18.10;99.90
12655;DHT22;6392;44.644;11.448;2023-05-07T06:00:25;18.10;99.90
12655;DHT22;6392;44.644;11.448;2023-05-07T06:02:52;18.10;99.90
12655;DHT22;6392;44.644;11.448;2023-05-07T06:05:19;18.10;99.90
12655;DHT22;6392;44.644;11.448;2023-05-07T06:07:46;18.10;99.90
12655;DHT22;6392;44.644;11.448;2023-05-07T06:10:12;18.10;99.90
12655;DHT22;6392;44.644;11.448;2023-05-07T06:12:39;18.20;99.90
12655;DHT22;6392;44.644;11.448;2023-05-07T06:15:08;18.20;99.90
12655;DHT22;6392;44.644;11.448;2023-05-07T06:17:35;18.20;99.90
12655;DHT22;6392;44.644;11.448;2023-05-07T06:20:01;18.20;99.90
12655;DHT22;6392;44.644;11.448;2023-05-07T06:22:28;18.20;99.90
12655;DHT22;6392;44.644;11.448;2023-05-07T06:24:55;18.20;99.90
12655;DHT22;6392;44.644;11.448;2023-05-07T06:27:22;18.20;99.90
12655;DHT22;6392;44.644;11.448;2023-05-07T06:29:48;18.20;99.90
12655;DHT22;6392;44.644;11.448;2023-05-07T06:32:17;18.20;99.90
12655;DHT22;6392;44.644;11.448;2023-05-07T06:34:44;18.30;99.90
12655;DHT22;6392;44.644;11.448;2023-05-07T06:37:11;18.30;99.90
12655;DHT22;6392;44.644;11.448;2023-05-07T06:39:38;18.30;99.90
12655;DHT22;6392;44.644;11.448;2023-05-07T06:42:04;18.40;99.90
12655;DHT22;6392;44.644;11.448;2023-05-07T06:44:31;18.50;99.90
12655;DHT22;6392;44.644;11.448;2023-05-07T06:46:58;18.50;99.90
12655;DHT22;6392;44.644;11.448;2023-05-07T06:49:26;18.50;99.90
12655;DHT22;6392;44.644;11.448;2023-05-07T06:51:53;18.60;99.90
12655;DHT22;6392;44.644;11.448;2023-05-07T06:54:20;18.60;99.90
12655;DHT22;6392;44.644;11.448;2023-05-07T06:56:47;18.70;99.90
12655;DHT22;6392;44.644;11.448;2023-05-07T06:59:14;18.70;99.90
12655;DHT22;6392;44.644;11.448;2023-05-07T07:01:41;18.80;99.90
12655;DHT22;6392;44.644;11.448;2023-05-07T07:04:08;18.90;99.90
12655;DHT22;6392;44.644;11.448;2023-05-07T07:06:36;18.90;99.90
12655;DHT22;6392;44.644;11.448;2023-05-07T07:09:03;19.00;99.90
12655;DHT22;6392;44.644;11.448;2023-05-07T07:11:29;19.00;99.90
12655;DHT22;6392;44.644;11.448;2023-05-07T07:13:56;19.00;99.90
12655;DHT22;6392;44.644;11.448;2023-05-07T07:16:24;19.00;99.90
12655;DHT22;6392;44.644;11.448;2023-05-07T07:18:51;19.10;99.90
12655;DHT22;6392;44.644;11.448;2023-05-07T07:21:17;19.10;99.90
12655;DHT22;6392;44.644;11.448;2023-05-07T07:23:46;19.10;99.90
12655;DHT22;6392;44.644;11.448;2023-05-07T07:26:12;19.20;99.90
12655;DHT22;6392;44.644;11.448;2023-05-07T07:28:42;19.30;99.90
12655;DHT22;6392;44.644;11.448;2023-05-07T07:31:10;19.30;99.90
12655;DHT22;6392;44.644;11.448;2023-05-07T07:33:37;19.40;99.90
12655;DHT22;6392;44.644;11.448;2023-05-07T07:36:04;19.40;99.90
12655;DHT22;6392;44.644;11.448;2023-05-07T07:38:31;19.40;99.90
12655;DHT22;6392;44.644;11.448;2023-05-07T07:40:59;19.40;99.90
12655;DHT22;6392;44.644;11.448;2023-05-07T07:43:26;19.40;99.90
12655;DHT22;6392;44.644;11.448;2023-05-07T07:45:53;19.40;99.90
12655;DHT22;6392;44.644;11.448;2023-05-07T07:48:20;19.50;99.90
12655;DHT22;6392;44.644;11.448;2023-05-07T07:50:48;19.50;99.90
12655;DHT22;6392;44.644;11.448;2023-05-07T07:53:15;19.60;99.90
12655;DHT22;6392;44.644;11.448;2023-05-07T07:55:41;19.60;99.90
12655;DHT22;6392;44.644;11.448;2023-05-07T07:58:10;19.60;99.90
12655;DHT22;6392;44.644;11.448;2023-05-07T08:00:36;19.70;99.90
12655;DHT22;6392;44.644;11.448;2023-05-07T08:03:03;19.80;99.90
12655;DHT22;6392;44.644;11.448;2023-05-07T08:05:30;19.80;99.90
12655;DHT22;6392;44.644;11.448;2023-05-07T08:07:57;19.90;99.90
12655;DHT22;6392;44.644;11.448;2023-05-07T08:10:23;19.90;99.90
12655;DHT22;6392;44.644;11.448;2023-05-07T08:12:50;20.00;99.90
12655;DHT22;6392;44.644;11.448;2023-05-07T08:15:19;20.00;99.90
12655;DHT22;6392;44.644;11.448;2023-05-07T08:17:45;20.10;99.90
12655;DHT22;6392;44.644;11.448;2023-05-07T08:20:12;20.10;99.90
12655;DHT22;6392;44.644;11.448;2023-05-07T08:22:39;20.10;99.90
12655;DHT22;6392;44.644;11.448;2023-05-07T08:25:06;20.20;99.90
12655;DHT22;6392;44.644;11.448;2023-05-07T08:27:33;20.30;99.90
12655;DHT22;6392;44.644;11.448;2023-05-07T08:29:59;20.30;99.90
12655;DHT22;6392;44.644;11.448;2023-05-07T08:32:27;20.30;99.90
12655;DHT22;6392;44.644;11.448;2023-05-07T08:34:54;20.30;99.90
12655;DHT22;6392;44.644;11.448;2023-05-07T08:37:21;20.30;99.90
12655;DHT22;6392;44.644;11.448;2023-05-07T08:39:48;20.40;99.90
12655;DHT22;6392;44.644;11.448;2023-05-07T08:42:15;20.40;99.90
12655;DHT22;6392;44.644;11.448;2023-05-07T08:44:43;20.50;99.90
12655;DHT22;6392;44.644;11.448;2023-05-07T08:47:12;20.50;99.90
12655;DHT22;6392;44.644;11.448;2023-05-07T08:49:40;20.60;99.90
12655;DHT22;6392;44.644;11.448;2023-05-07T08:52:07;20.60;99.90
12655;DHT22;6392;44.644;11.448;2023-05-07T08:54:33;20.60;99.90
12655;DHT22;6392;44.644;11.448;2023-05-07T08:57:03;20.60;99.90
12655;DHT22;6392;44.644;11.448;2023-05-07T08:59:29;20.70;99.90
12655;DHT22;6392;44.644;11.448;2023-05-07T09:01:56;20.70;99.90
12655;DHT22;6392;44.644;11.448;2023-05-07T09:04:23;20.80;99.90
12655;DHT22;6392;44.644;11.448;2023-05-07T09:06:52;20.80;99.90
12655;DHT22;6392;44.644;11.448;2023-05-07T09:09:19;20.80;99.90
12655;DHT22;6392;44.644;11.448;2023-05-07T09:11:47;20.80;99.90
12655;DHT22;6392;44.644;11.448;2023-05-07T09:14:14;20.80;99.90
12655;DHT22;6392;44.644;11.448;2023-05-07T09:16:41;20.90;99.90
12655;DHT22;6392;44.644;11.448;2023-05-07T09:19:10;20.90;99.90
12655;DHT22;6392;44.644;11.448;2023-05-07T09:21:36;20.90;99.90
12655;DHT22;6392;44.644;11.448;2023-05-07T09:24:05;20.90;99.90
12655;DHT22;6392;44.644;11.448;2023-05-07T09:26:32;20.90;99.90
12655;DHT22;6392;44.644;11.448;2023-05-07T09:29:00;21.00;99.90
12655;DHT22;6392;44.644;11.448;2023-05-07T09:31:27;21.00;99.90
12655;DHT22;6392;44.644;11.448;2023-05-07T09:33:54;21.00;99.90
12655;DHT22;6392;44.644;11.448;2023-05-07T09:36:21;21.00;99.90
12655;DHT22;6392;44.644;11.448;2023-05-07T09:38:48;21.00;99.90
12655;DHT22;6392;44.644;11.448;2023-05-07T09:41:16;21.10;99.90
12655;DHT22;6392;44.644;11.448;2023-05-07T09:43:43;21.10;99.90
12655;DHT22;6392;44.644;11.448;2023-05-07T09:46:11;21.20;99.90
12655;DHT22;6392;44.644;11.448;2023-05-07T09:48:42;21.20;99.90
12655;DHT22;6392;44.644;11.448;2023-05-07T09:51:15;21.20;99.90
12655;DHT22;6392;44.644;11.448;2023-05-07T09:53:45;21.30;99.90
12655;DHT22;6392;44.644;11.448;2023-05-07T09:56:13;21.30;99.90
12655;DHT22;6392;44.644;11.448;2023-05-07T09:58:42;21.30;99.90
12655;DHT22;6392;44.644;11.448;2023-05-07T10:01:10;21.30;99.90
12655;DHT22;6392;44.644;11.448;2023-05-07T10:03:37;21.30;99.90
12655;DHT22;6392;44.644;11.448;2023-05-07T10:06:06;21.30;99.90
12655;DHT22;6392;44.644;11.448;2023-05-07T10:08:33;21.40;99.90
12655;DHT22;6392;44.644;11.448;2023-05-07T10:11:01;21.50;99.90
12655;DHT22;6392;44.644;11.448;2023-05-07T10:13:28;21.50;99.90
12655;DHT22;6392;44.644;11.448;2023-05-07T10:15:56;21.50;99.90
12655;DHT22;6392;44.644;11.448;2023-05-07T10:18:23;21.50;99.90
12655;DHT22;6392;44.644;11.448;2023-05-07T10:20:55;21.50;99.90
12655;DHT22;6392;44.644;11.448;2023-05-07T10:23:24;21.50;99.90
12655;DHT22;6392;44.644;11.448;2023-05-07T10:25:53;21.50;99.90
12655;DHT22;6392;44.644;11.448;2023-05-07T10:28:21;21.60;99.90
12655;DHT22;6392;44.644;11.448;2023-05-07T10:30:54;21.60;99.90
12655;DHT22;6392;44.644;11.448;2023-05-07T10:33:29;21.60;99.90
12655;DHT22;6392;44.644;11.448;2023-05-07T10:35:57;21.60;99.90
12655;DHT22;6392;44.644;11.448;2023-05-07T10:38:25;21.60;99.90
12655;DHT22;6392;44.644;11.448;2023-05-07T10:40:53;21.70;99.90
12655;DHT22;6392;44.644;11.448;2023-05-07T10:43:20;21.70;99.90
12655;DHT22;6392;44.644;11.448;2023-05-07T10:48:30;21.80;99.90
12655;DHT22;6392;44.644;11.448;2023-05-07T10:53:42;21.80;99.90
12655;DHT22;6392;44.644;11.448;2023-05-07T10:56:25;21.80;99.90
12655;DHT22;6392;44.644;11.448;2023-05-07T10:58:53;21.80;99.90
12655;DHT22;6392;44.644;11.448;2023-05-07T11:04:15;21.80;99.90
12655;DHT22;6392;44.644;11.448;2023-05-07T11:06:45;21.80;99.90
12655;DHT22;6392;44.644;11.448;2023-05-07T11:12:13;22.00;99.90
12655;DHT22;6392;44.644;11.448;2023-05-07T11:14:43;22.00;99.90
12655;DHT22;6392;44.644;11.448;2023-05-07T11:17:10;21.90;99.90
12655;DHT22;6392;44.644;11.448;2023-05-07T11:19:52;21.90;99.90
12655;DHT22;6392;44.644;11.448;2023-05-07T11:25:01;22.00;99.90
12655;DHT22;6392;44.644;11.448;2023-05-07T11:27:28;22.00;99.90
12655;DHT22;6392;44.644;11.448;2023-05-07T11:29:55;22.10;99.90
12655;DHT22;6392;44.644;11.448;2023-05-07T11:32:22;22.10;99.90
12655;DHT22;6392;44.644;11.448;2023-05-07T11:34:52;22.10;99.90
12655;DHT22;6392;44.644;11.448;2023-05-07T11:37:19;22.10;99.90
12655;DHT22;6392;44.644;11.448;2023-05-07T11:39:46;22.10;99.90
12655;DHT22;6392;44.644;11.448;2023-05-07T11:42:27;22.10;99.90
12655;DHT22;6392;44.644;11.448;2023-05-07T11:44:54;22.10;99.90
12655;DHT22;6392;44.644;11.448;2023-05-07T11:47:21;22.20;99.90
12655;DHT22;6392;44.644;11.448;2023-05-07T11:49:48;22.20;99.90
12655;DHT22;6392;44.644;11.448;2023-05-07T11:52:16;22.30;99.90
12655;DHT22;6392;44.644;11.448;2023-05-07T11:54:48;22.30;99.90
12655;DHT22;6392;44.644;11.448;2023-05-07T11:57:15;22.30;99.90
12655;DHT22;6392;44.644;11.448;2023-05-07T11:59:42;22.40;99.90
12655;DHT22;6392;44.644;11.448;2023-05-07T12:02:09;22.40;99.90
12655;DHT22;6392;44.644;11.448;2023-05-07T12:04:37;22.40;99.90
12655;DHT22;6392;44.644;11.448;2023-05-07T12:07:04;22.40;99.90
12655;DHT22;6392;44.644;11.448;2023-05-07T12:09:33;22.50;99.90
12655;DHT22;6392;44.644;11.448;2023-05-07T12:12:03;22.50;99.90
12655;DHT22;6392;44.644;11.448;2023-05-07T12:14:29;22.60;99.90
12655;DHT22;6392;44.644;11.448;2023-05-07T12:16:57;22.60;99.90
12655;DHT22;6392;44.644;11.448;2023-05-07T12:19:27;22.60;99.90
12655;DHT22;6392;44.644;11.448;2023-05-07T12:21:55;22.70;99.90
12655;DHT22;6392;44.644;11.448;2023-05-07T12:24:22;22.80;99.90
12655;DHT22;6392;44.644;11.448;2023-05-07T12:26:50;22.80;99.90
12655;DHT22;6392;44.644;11.448;2023-05-07T12:29:17;22.80;99.90
12655;DHT22;6392;44.644;11.448;2023-05-07T12:31:47;22.90;99.90
12655;DHT22;6392;44.644;11.448;2023-05-07T12:34:14;23.00;99.90
12655;DHT22;6392;44.644;11.448;2023-05-07T12:36:41;23.20;99.90
12655;DHT22;6392;44.644;11.448;2023-05-07T12:39:08;23.30;99.90
12655;DHT22;6392;44.644;11.448;2023-05-07T12:41:36;23.30;99.90
12655;DHT22;6392;44.644;11.448;2023-05-07T12:44:05;23.40;99.90
12655;DHT22;6392;44.644;11.448;2023-05-07T12:46:32;23.40;99.90
12655;DHT22;6392;44.644;11.448;2023-05-07T12:49:05;23.40;99.90
12655;DHT22;6392;44.644;11.448;2023-05-07T12:51:31;23.50;99.90
12655;DHT22;6392;44.644;11.448;2023-05-07T12:53:58;23.60;99.90
12655;DHT22;6392;44.644;11.448;2023-05-07T12:56:25;23.60;99.90
12655;DHT22;6392;44.644;11.448;2023-05-07T12:58:52;23.70;99.90
12655;DHT22;6392;44.644;11.448;2023-05-07T13:01:28;23.70;99.90
12655;DHT22;6392;44.644;11.448;2023-05-07T13:03:55;23.80;99.90
12655;DHT22;6392;44.644;11.448;2023-05-07T13:06:22;23.80;99.90
12655;DHT22;6392;44.644;11.448;2023-05-07T13:08:48;23.80;99.90
12655;DHT22;6392;44.644;11.448;2023-05-07T13:11:15;23.80;99.90
12655;DHT22;6392;44.644;11.448;2023-05-07T13:13:42;23.70;99.90
12655;DHT22;6392;44.644;11.448;2023-05-07T13:28:19;23.80;99.90
12655;DHT22;6392;44.644;11.448;2023-05-07T13:30:46;24.20;99.90
12655;DHT22;6392;44.644;11.448;2023-05-07T13:33:13;24.30;99.90
12655;DHT22;6392;44.644;11.448;2023-05-07T13:35:40;24.40;99.90
12655;DHT22;6392;44.644;11.448;2023-05-07T13:38:07;24.40;99.90
12655;DHT22;6392;44.644;11.448;2023-05-07T13:40:34;24.50;99.90
12655;DHT22;6392;44.644;11.448;2023-05-07T13:43:01;24.50;99.90
12655;DHT22;6392;44.644;11.448;2023-05-07T13:45:29;24.50;99.90
12655;DHT22;6392;44.644;11.448;2023-05-07T13:47:56;24.70;99.90
12655;DHT22;6392;44.644;11.448;2023-05-07T13:50:23;24.80;99.90
12655;DHT22;6392;44.644;11.448;2023-05-07T13:52:52;25.00;99.90
12655;DHT22;6392;44.644;11.448;2023-05-07T13:55:19;25.10;99.90
12655;DHT22;6392;44.644;11.448;2023-05-07T13:57:46;25.20;99.90
12655;DHT22;6392;44.644;11.448;2023-05-07T14:00:13;25.20;99.90
12655;DHT22;6392;44.644;11.448;2023-05-07T14:02:43;25.30;99.90
12655;DHT22;6392;44.644;11.448;2023-05-07T14:05:09;25.40;99.90
12655;DHT22;6392;44.644;11.448;2023-05-07T14:07:36;25.40;99.90
12655;DHT22;6392;44.644;11.448;2023-05-07T14:10:04;25.60;99.90
12655;DHT22;6392;44.644;11.448;2023-05-07T14:12:31;25.60;99.90
12655;DHT22;6392;44.644;11.448;2023-05-07T14:14:58;25.70;99.90
12655;DHT22;6392;44.644;11.448;2023-05-07T14:17:25;25.70;99.90
12655;DHT22;6392;44.644;11.448;2023-05-07T14:19:53;25.80;99.90
12655;DHT22;6392;44.644;11.448;2023-05-07T14:22:20;25.90;99.90
12655;DHT22;6392;44.644;11.448;2023-05-07T14:24:47;25.90;99.90
12655;DHT22;6392;44.644;11.448;2023-05-07T14:27:14;26.00;99.90
12655;DHT22;6392;44.644;11.448;2023-05-07T14:29:44;26.10;99.90
12655;DHT22;6392;44.644;11.448;2023-05-07T14:32:16;26.20;99.90
12655;DHT22;6392;44.644;11.448;2023-05-07T14:34:42;26.30;99.90
12655;DHT22;6392;44.644;11.448;2023-05-07T14:37:11;26.40;99.90
12655;DHT22;6392;44.644;11.448;2023-05-07T14:39:37;26.60;99.90
12655;DHT22;6392;44.644;11.448;2023-05-07T14:42:04;26.60;99.90
12655;DHT22;6392;44.644;11.448;2023-05-07T14:44:33;26.60;99.90
12655;DHT22;6392;44.644;11.448;2023-05-07T14:46:59;26.60;99.90
12655;DHT22;6392;44.644;11.448;2023-05-07T14:49:26;26.70;99.90
12655;DHT22;6392;44.644;11.448;2023-05-07T14:51:53;26.70;99.90
12655;DHT22;6392;44.644;11.448;2023-05-07T14:54:22;26.80;99.90
12655;DHT22;6392;44.644;11.448;2023-05-07T14:56:49;26.80;99.90
12655;DHT22;6392;44.644;11.448;2023-05-07T14:59:16;26.80;99.90
12655;DHT22;6392;44.644;11.448;2023-05-07T15:01:46;26.80;99.90
12655;DHT22;6392;44.644;11.448;2023-05-07T15:04:13;26.90;99.90
12655;DHT22;6392;44.644;11.448;2023-05-07T15:06:39;26.90;99.90
12655;DHT22;6392;44.644;11.448;2023-05-07T15:09:06;26.80;99.90
12655;DHT22;6392;44.644;11.448;2023-05-07T15:11:35;26.80;99.90
12655;DHT22;6392;44.644;11.448;2023-05-07T15:14:02;26.80;99.90
12655;DHT22;6392;44.644;11.448;2023-05-07T15:16:29;26.70;99.90
12655;DHT22;6392;44.644;11.448;2023-05-07T15:18:55;26.80;99.90
12655;DHT22;6392;44.644;11.448;2023-05-07T15:21:22;26.80;99.90
12655;DHT22;6392;44.644;11.448;2023-05-07T15:23:49;26.90;99.90
12655;DHT22;6392;44.644;11.448;2023-05-07T15:26:16;26.90;99.90
12655;DHT22;6392;44.644;11.448;2023-05-07T15:28:44;27.00;99.90
12655;DHT22;6392;44.644;11.448;2023-05-07T15:31:11;27.00;99.90
12655;DHT22;6392;44.644;11.448;2023-05-07T15:33:38;27.00;99.90
12655;DHT22;6392;44.644;11.448;2023-05-07T15:36:06;27.00;99.90
12655;DHT22;6392;44.644;11.448;2023-05-07T15:38:33;27.10;99.90
12655;DHT22;6392;44.644;11.448;2023-05-07T15:41:00;27.00;99.90
12655;DHT22;6392;44.644;11.448;2023-05-07T15:43:27;27.00;99.90
12655;DHT22;6392;44.644;11.448;2023-05-07T15:45:55;26.90;99.90
12655;DHT22;6392;44.644;11.448;2023-05-07T15:48:22;27.00;99.90
12655;DHT22;6392;44.644;11.448;2023-05-07T15:50:49;27.10;99.90
12655;DHT22;6392;44.644;11.448;2023-05-07T15:53:16;27.10;99.90
12655;DHT22;6392;44.644;11.448;2023-05-07T15:55:43;27.20;99.90
12655;DHT22;6392;44.644;11.448;2023-05-07T15:58:09;27.20;99.90